createdAt,value
2022-10-01T00:01:01.569Z,99034.47
2022-10-01T00:03:29.283Z,99041.03
2022-10-01T00:06:17.397Z,99026.66
2022-10-01T00:08:48.157Z,99029.03
2022-10-01T00:11:18.870Z,99020.03
2022-10-01T00:13:46.096Z,99016.03
2022-10-01T00:16:14.705Z,99016.63
2022-10-01T00:18:43.149Z,99013.41
2022-10-01T00:21:11.715Z,99006.69
2022-10-01T00:23:38.340Z,99002.72
2022-10-01T00:26:11.768Z,98994.94
2022-10-01T00:28:38.294Z,98995.78
2022-10-01T00:31:07.066Z,98985.25
2022-10-01T00:33:34.180Z,98988.00
2022-10-01T00:36:00.712Z,98984.41
2022-10-01T00:38:29.114Z,98978.16
2022-10-01T00:40:55.604Z,98972.25
2022-10-01T00:43:24.163Z,98973.66
2022-10-01T00:45:54.272Z,98985.22
2022-10-01T00:48:23.225Z,98971.66
2022-10-01T00:50:50.466Z,98971.75
2022-10-01T00:53:19.357Z,98968.16
2022-10-01T00:55:51.920Z,98963.75
2022-10-01T00:58:20.173Z,98962.63
2022-10-01T01:00:47.457Z,98961.53
2022-10-01T01:03:15.414Z,98946.22
2022-10-01T01:05:41.824Z,98951.22
2022-10-01T01:08:09.801Z,98946.53
2022-10-01T01:10:51.393Z,98934.31
2022-10-01T01:13:44.968Z,98946.25
2022-10-01T01:16:21.717Z,98932.38
2022-10-01T01:19:09.994Z,98940.88
2022-10-01T01:21:47.438Z,98941.13
2022-10-01T01:24:28.422Z,98945.19
2022-10-01T01:27:18.099Z,98940.72
2022-10-01T01:29:50.311Z,98939.03
2022-10-01T01:32:46.121Z,98927.41
2022-10-01T01:35:19.550Z,98933.50
2022-10-01T01:37:52.302Z,98933.78
2022-10-01T01:40:20.638Z,98919.59
2022-10-01T01:42:49.025Z,98907.97
2022-10-01T01:45:22.551Z,98902.56
2022-10-01T01:47:50.900Z,98891.56
2022-10-01T01:50:18.736Z,98903.25
2022-10-01T01:52:45.860Z,98898.81
2022-10-01T01:55:12.331Z,98900.31
2022-10-01T01:57:43.976Z,98892.41
2022-10-01T02:00:12.646Z,98895.19
2022-10-01T02:02:43.317Z,98899.25
2022-10-01T02:05:15.914Z,98883.53
2022-10-01T02:08:15.949Z,98892.34
2022-10-01T02:11:04.543Z,98887.06
2022-10-01T02:13:48.253Z,98892.75
2022-10-01T02:16:37.695Z,98889.69
2022-10-01T02:19:44.761Z,98893.59
2022-10-01T02:22:26.798Z,98883.03
2022-10-01T02:24:58.382Z,98885.97
2022-10-01T02:27:30.256Z,98887.09
2022-10-01T02:30:01.818Z,98887.25
2022-10-01T02:32:30.900Z,98884.63
2022-10-01T02:34:58.828Z,98875.28
2022-10-01T02:37:27.556Z,98885.28
2022-10-01T02:39:57.745Z,98881.81
2022-10-01T02:42:27.465Z,98884.31
2022-10-01T02:44:57.025Z,98895.84
2022-10-01T02:47:34.026Z,98883.50
2022-10-01T02:50:05.168Z,98885.28
2022-10-01T02:52:54.305Z,98877.50
2022-10-01T02:55:28.557Z,98885.44
2022-10-01T02:57:55.973Z,98873.63
2022-10-01T03:00:22.848Z,98877.66
2022-10-01T03:02:49.842Z,98872.38
2022-10-01T03:05:17.346Z,98870.69
2022-10-01T03:07:43.906Z,98872.22
2022-10-01T03:10:11.830Z,98868.88
2022-10-01T03:12:40.965Z,98861.78
2022-10-01T03:15:07.699Z,98854.13
2022-10-01T03:17:36.012Z,98855.25
2022-10-01T03:20:03.026Z,98848.84
2022-10-01T03:22:30.193Z,98856.94
2022-10-01T03:24:56.630Z,98840.22
2022-10-01T03:27:23.329Z,98841.63
2022-10-01T03:29:49.872Z,98844.41
2022-10-01T03:32:17.011Z,98840.50
2022-10-01T03:34:43.532Z,98845.09
2022-10-01T03:37:10.619Z,98845.50
2022-10-01T03:39:37.059Z,98837.00
2022-10-01T03:42:05.717Z,98838.84
2022-10-01T03:44:33.625Z,98836.47
2022-10-01T03:46:59.993Z,98823.97
2022-10-01T03:49:26.353Z,98836.31
2022-10-01T03:51:52.713Z,98828.09
2022-10-01T03:54:20.260Z,98823.38
2022-10-01T03:56:46.640Z,98812.13
2022-10-01T03:59:12.997Z,98806.84
2022-10-01T04:01:39.599Z,98799.91
2022-10-01T04:04:06.440Z,98807.41
2022-10-01T04:06:32.901Z,98804.50
2022-10-01T04:08:59.248Z,98804.50
2022-10-01T04:11:26.125Z,98799.06
2022-10-01T04:13:52.522Z,98779.50
2022-10-01T04:16:19.127Z,98783.66
2022-10-01T04:18:45.549Z,98773.41
2022-10-01T04:21:12.798Z,98760.88
2022-10-01T04:23:39.224Z,98763.81
2022-10-01T04:26:05.774Z,98759.63
2022-10-01T04:28:32.355Z,98755.75
2022-10-01T04:31:17.320Z,98752.66
2022-10-01T04:33:44.215Z,98753.09
2022-10-01T04:36:11.116Z,98758.94
2022-10-01T04:38:38.036Z,98762.00
2022-10-01T04:41:04.545Z,98747.81
2022-10-01T04:43:30.967Z,98750.47
2022-10-01T04:45:57.365Z,98758.53
2022-10-01T04:48:24.164Z,98768.22
2022-10-01T04:50:50.567Z,98789.91
2022-10-01T04:53:16.929Z,98787.41
2022-10-01T04:55:43.686Z,98770.88
2022-10-01T04:58:10.479Z,98750.59
2022-10-01T05:00:36.904Z,98755.69
2022-10-01T05:03:03.416Z,98725.41
2022-10-01T05:05:32.838Z,98742.53
2022-10-01T05:07:59.264Z,98743.09
2022-10-01T05:10:26.075Z,98761.84
2022-10-01T05:12:52.509Z,98753.53
2022-10-01T05:15:19.498Z,98739.63
2022-10-01T05:17:46.790Z,98735.03
2022-10-01T05:20:21.298Z,98718.22
2022-10-01T05:22:49.309Z,98712.25
2022-10-01T05:25:17.359Z,98706.00
2022-10-01T05:27:43.998Z,98687.69
2022-10-01T05:30:12.173Z,98695.03
2022-10-01T05:32:39.143Z,98702.84
2022-10-01T05:35:08.103Z,98699.91
2022-10-01T05:37:35.092Z,98692.28
2022-10-01T05:40:01.675Z,98694.63
2022-10-01T05:42:28.102Z,98699.63
2022-10-01T05:44:54.466Z,98689.91
2022-10-01T05:47:20.913Z,98691.84
2022-10-01T05:49:47.322Z,98680.75
2022-10-01T05:52:15.476Z,98687.28
2022-10-01T05:54:41.836Z,98689.06
2022-10-01T05:57:08.560Z,98686.56
2022-10-01T05:59:35.526Z,98682.94
2022-10-01T06:02:02.719Z,98681.84
2022-10-01T06:04:29.182Z,98688.81
2022-10-01T06:06:56.324Z,98690.88
2022-10-01T06:09:22.926Z,98681.59
2022-10-01T06:11:49.549Z,98670.06
2022-10-01T06:14:16.374Z,98677.13
2022-10-01T06:16:43.022Z,98677.97
2022-10-01T06:19:09.579Z,98672.97
2022-10-01T06:21:36.299Z,98669.09
2022-10-01T06:24:03.029Z,98668.78
2022-10-01T06:26:29.400Z,98682.56
2022-10-01T06:28:56.564Z,98693.22
2022-10-01T06:31:23.210Z,98691.03
2022-10-01T06:33:49.728Z,98684.22
2022-10-01T06:36:16.072Z,98675.31
2022-10-01T06:38:43.028Z,98669.09
2022-10-01T06:41:09.990Z,98687.56
2022-10-01T06:43:36.444Z,98680.63
2022-10-01T06:46:04.720Z,98680.88
2022-10-01T06:48:32.288Z,98672.28
2022-10-01T06:50:59.469Z,98661.56
2022-10-01T06:53:27.839Z,98687.25
2022-10-01T06:55:55.091Z,98685.03
2022-10-01T06:58:26.159Z,98652.94
2022-10-01T07:00:58.426Z,98660.88
2022-10-01T07:03:24.939Z,98653.66
2022-10-01T07:05:51.513Z,98646.69
2022-10-01T07:08:18.674Z,98652.13
2022-10-01T07:10:45.643Z,98661.84
2022-10-01T07:13:16.002Z,98663.09
2022-10-01T07:15:42.888Z,98660.16
2022-10-01T07:18:11.345Z,98639.75
2022-10-01T07:20:42.136Z,98622.88
2022-10-01T07:23:12.807Z,98625.94
2022-10-01T07:25:40.538Z,98652.34
2022-10-01T07:28:16.017Z,98649.84
2022-10-01T07:31:03.594Z,98643.72
2022-10-01T07:33:30.043Z,98641.50
2022-10-01T07:36:00.047Z,98656.38
2022-10-01T07:38:26.435Z,98653.72
2022-10-01T07:40:54.519Z,98651.06
2022-10-01T07:43:21.317Z,98656.06
2022-10-01T07:45:49.555Z,98648.72
2022-10-01T07:48:16.001Z,98650.78
2022-10-01T07:50:45.201Z,98660.94
2022-10-01T07:53:12.196Z,98661.75
2022-10-01T07:55:38.638Z,98645.38
2022-10-01T07:58:05.308Z,98650.03
2022-10-01T08:00:33.645Z,98648.94
2022-10-01T08:03:00.178Z,98654.78
2022-10-01T08:05:29.175Z,98658.09
2022-10-01T08:08:03.911Z,98658.94
2022-10-01T08:10:31.049Z,98660.06
2022-10-01T08:13:14.626Z,98669.22
2022-10-01T08:15:43.475Z,98673.53
2022-10-01T08:18:11.235Z,98678.81
2022-10-01T08:20:39.501Z,98687.00
2022-10-01T08:23:08.426Z,98683.94
2022-10-01T08:25:34.971Z,98679.50
2022-10-01T08:28:01.711Z,98655.84
2022-10-01T08:30:29.075Z,98660.41
2022-10-01T08:32:56.869Z,98681.56
2022-10-01T08:35:24.583Z,98674.03
2022-10-01T08:37:50.971Z,98674.72
2022-10-01T08:40:19.851Z,98680.53
2022-10-01T08:43:06.034Z,98670.22
2022-10-01T08:45:46.244Z,98670.50
2022-10-01T08:48:23.793Z,98682.75
2022-10-01T08:50:57.156Z,98678.53
2022-10-01T08:53:43.783Z,98683.38
2022-10-01T08:56:21.495Z,98679.75
2022-10-01T08:58:55.335Z,98689.22
2022-10-01T09:01:22.157Z,98698.13
2022-10-01T09:03:49.201Z,98687.38
2022-10-01T09:06:20.134Z,98689.59
2022-10-01T09:08:59.864Z,98674.25
2022-10-01T09:11:32.397Z,98690.13
2022-10-01T09:14:36.533Z,98689.84
2022-10-01T09:17:19.202Z,98703.47
2022-10-01T09:20:16.246Z,98695.16
2022-10-01T09:23:18.604Z,98702.06
2022-10-01T09:25:50.167Z,98703.09
2022-10-01T09:28:23.461Z,98695.72
2022-10-01T09:31:41.396Z,98702.59
2022-10-01T09:34:14.448Z,98708.34
2022-10-01T09:37:04.591Z,98709.25
2022-10-01T09:40:05.356Z,98703.16
2022-10-01T09:42:32.080Z,98681.75
2022-10-01T09:44:59.106Z,98692.31
2022-10-01T09:47:26.259Z,98699.34
2022-10-01T09:49:53.011Z,98699.28
2022-10-01T09:52:27.015Z,98686.75
2022-10-01T09:54:56.494Z,98702.66
2022-10-01T09:57:31.421Z,98706.28
2022-10-01T10:00:11.681Z,98707.72
2022-10-01T10:02:45.945Z,98711.53
2022-10-01T10:05:24.283Z,98709.19
2022-10-01T10:07:58.271Z,98694.75
2022-10-01T10:10:36.823Z,98706.47
2022-10-01T10:13:18.697Z,98707.47
2022-10-01T10:15:56.249Z,98718.19
2022-10-01T10:18:34.461Z,98729.47
2022-10-01T10:21:19.362Z,98726.34
2022-10-01T10:23:51.555Z,98718.28
2022-10-01T10:26:39.166Z,98722.94
2022-10-01T10:29:09.273Z,98723.78
2022-10-01T10:31:44.695Z,98717.34
2022-10-01T10:34:13.472Z,98723.69
2022-10-01T10:36:41.731Z,98711.63
2022-10-01T10:39:21.206Z,98718.72
2022-10-01T10:41:50.500Z,98720.59
2022-10-01T10:44:21.328Z,98728.34
2022-10-01T10:46:49.969Z,98736.66
2022-10-01T10:49:26.204Z,98737.84
2022-10-01T10:51:54.707Z,98732.56
2022-10-01T10:54:33.313Z,98731.09
2022-10-01T10:57:21.011Z,98734.63
2022-10-01T11:00:15.478Z,98743.22
2022-10-01T11:02:51.989Z,98743.13
2022-10-01T11:05:21.783Z,98742.72
2022-10-01T11:07:52.004Z,98739.84
2022-10-01T11:10:49.494Z,98746.16
2022-10-01T11:13:34.056Z,98741.81
2022-10-01T11:16:28.663Z,98746.25
2022-10-01T11:19:13.761Z,98726.56
2022-10-01T11:22:16.029Z,98739.75
2022-10-01T11:24:51.271Z,98731.94
2022-10-01T11:27:36.140Z,98734.28
2022-10-01T11:30:13.637Z,98743.38
2022-10-01T11:33:03.431Z,98747.28
2022-10-01T11:35:51.013Z,98742.66
2022-10-01T11:38:36.168Z,98752.31
2022-10-01T11:41:33.787Z,98743.50
2022-10-01T11:44:06.097Z,98745.94
2022-10-01T11:46:50.370Z,98741.28
2022-10-01T11:49:19.805Z,98746.47
2022-10-01T11:52:17.545Z,98739.31
2022-10-01T11:55:19.484Z,98741.88
2022-10-01T11:58:10.385Z,98730.00
2022-10-01T12:00:39.258Z,98731.53
2022-10-01T12:03:15.954Z,98728.72
2022-10-01T12:05:42.981Z,98726.81
2022-10-01T12:08:24.126Z,98734.91
2022-10-01T12:11:05.589Z,98728.84
2022-10-01T12:13:37.680Z,98728.13
2022-10-01T12:16:11.617Z,98732.44
2022-10-01T12:18:40.729Z,98722.13
2022-10-01T12:21:14.031Z,98718.09
2022-10-01T12:23:48.408Z,98723.00
2022-10-01T12:26:27.343Z,98725.94
2022-10-01T12:29:01.786Z,98727.28
2022-10-01T12:31:49.625Z,98724.91
2022-10-01T12:34:36.960Z,98731.34
2022-10-01T12:37:29.538Z,98736.50
2022-10-01T12:40:05.417Z,98739.06
2022-10-01T12:42:48.767Z,98727.19
2022-10-01T12:45:38.457Z,98727.53
2022-10-01T12:48:16.924Z,98742.56
2022-10-01T12:50:48.775Z,98744.06
2022-10-01T12:53:19.397Z,98739.44
2022-10-01T12:56:00.960Z,98740.09
2022-10-01T12:58:45.891Z,98755.75
2022-10-01T13:01:21.802Z,98751.03
2022-10-01T13:04:17.157Z,98749.19
2022-10-01T13:06:49.535Z,98745.97
2022-10-01T13:09:28.949Z,98761.00
2022-10-01T13:12:16.562Z,98757.03
2022-10-01T13:14:44.332Z,98741.66
2022-10-01T13:17:19.341Z,98756.47
2022-10-01T13:20:12.720Z,98747.53
2022-10-01T13:22:56.405Z,98756.56
2022-10-01T13:25:46.590Z,98765.66
2022-10-01T13:28:19.354Z,98763.50
2022-10-01T13:31:14.657Z,98774.06
2022-10-01T13:33:41.546Z,98771.75
2022-10-01T13:36:10.538Z,98771.31
2022-10-01T13:38:46.080Z,98776.88
2022-10-01T13:41:26.687Z,98779.94
2022-10-01T13:44:04.329Z,98789.75
2022-10-01T13:46:33.990Z,98779.63
2022-10-01T13:49:07.993Z,98790.09
2022-10-01T13:51:46.030Z,98784.28
2022-10-01T13:54:23.614Z,98784.50
2022-10-01T13:56:50.002Z,98789.81
2022-10-01T13:59:30.480Z,98794.31
2022-10-01T14:01:57.243Z,98799.66
2022-10-01T14:04:39.881Z,98808.97
2022-10-01T14:07:22.105Z,98809.59
2022-10-01T14:09:52.085Z,98809.31
2022-10-01T14:12:59.969Z,98807.94
2022-10-01T14:16:00.638Z,98823.63
2022-10-01T14:18:32.922Z,98823.63
2022-10-01T14:21:08.954Z,98807.88
2022-10-01T14:23:50.684Z,98823.66
2022-10-01T14:26:38.510Z,98822.19
2022-10-01T14:29:32.790Z,98825.00
2022-10-01T14:32:16.348Z,98827.84
2022-10-01T14:34:53.351Z,98821.19
2022-10-01T14:37:20.293Z,98824.03
2022-10-01T14:39:46.751Z,98821.84
2022-10-01T14:42:17.337Z,98829.00
2022-10-01T14:44:47.754Z,98819.34
2022-10-01T14:47:25.364Z,98818.34
2022-10-01T14:49:53.730Z,98827.03
2022-10-01T14:52:26.512Z,98827.34
2022-10-01T14:55:04.207Z,98835.66
2022-10-01T14:57:35.070Z,98832.84
2022-10-01T15:00:10.620Z,98842.19
2022-10-01T15:02:51.990Z,98845.00
2022-10-01T15:05:25.656Z,98854.34
2022-10-01T15:07:53.010Z,98846.34
2022-10-01T15:10:21.458Z,98864.44
2022-10-01T15:12:51.593Z,98860.31
2022-10-01T15:15:20.781Z,98857.81
2022-10-01T15:17:48.874Z,98858.66
2022-10-01T15:20:16.570Z,98867.13
2022-10-01T15:22:46.999Z,98874.09
2022-10-01T15:25:23.682Z,98878.94
2022-10-01T15:27:50.209Z,98889.56
2022-10-01T15:30:18.301Z,98899.69
2022-10-01T15:32:47.377Z,98890.91
2022-10-01T15:35:17.482Z,98904.19
2022-10-01T15:37:49.959Z,98903.69
2022-10-01T15:40:35.364Z,98903.84
2022-10-01T15:43:07.802Z,98916.63
2022-10-01T15:45:35.378Z,98924.94
2022-10-01T15:48:01.785Z,98916.47
2022-10-01T15:50:38.682Z,98928.09
2022-10-01T15:53:19.482Z,98928.41
2022-10-01T15:55:52.244Z,98924.09
2022-10-01T15:58:24.257Z,98925.56
2022-10-01T16:00:59.787Z,98928.72
2022-10-01T16:03:38.706Z,98955.84
2022-10-01T16:06:08.229Z,98966.63
2022-10-01T16:08:53.022Z,98964.28
2022-10-01T16:11:23.477Z,98977.41
2022-10-01T16:13:52.625Z,98975.56
2022-10-01T16:16:21.835Z,98982.34
2022-10-01T16:18:54.098Z,98979.50
2022-10-01T16:21:21.552Z,98984.75
2022-10-01T16:23:50.493Z,98982.59
2022-10-01T16:26:36.353Z,98988.22
2022-10-01T16:29:07.142Z,98997.00
2022-10-01T16:31:35.504Z,98989.78
2022-10-01T16:34:01.966Z,98992.59
2022-10-01T16:36:28.740Z,99004.53
2022-10-01T16:38:55.094Z,99003.38
2022-10-01T16:41:25.053Z,99014.31
2022-10-01T16:43:54.525Z,99017.81
2022-10-01T16:46:20.975Z,99014.31
2022-10-01T16:48:51.422Z,99012.81
2022-10-01T16:51:19.187Z,99027.59
2022-10-01T16:53:46.886Z,99038.00
2022-10-01T16:56:14.091Z,99043.31
2022-10-01T16:58:41.709Z,99029.34
2022-10-01T17:01:09.699Z,99044.16
2022-10-01T17:03:36.625Z,99055.91
2022-10-01T17:06:03.062Z,99047.88
2022-10-01T17:08:29.530Z,99068.66
2022-10-01T17:10:59.860Z,99055.56
2022-10-01T17:13:27.999Z,99063.97
2022-10-01T17:15:54.440Z,99069.44
2022-10-01T17:18:21.680Z,99060.25
2022-10-01T17:20:48.230Z,99071.72
2022-10-01T17:23:17.342Z,99073.53
2022-10-01T17:25:44.626Z,99077.94
2022-10-01T17:28:16.843Z,99081.97
2022-10-01T17:30:44.687Z,99090.53
2022-10-01T17:33:13.622Z,99097.13
2022-10-01T17:35:42.812Z,99110.25
2022-10-01T17:38:10.096Z,99110.09
2022-10-01T17:40:39.509Z,99111.16
2022-10-01T17:43:05.984Z,99127.31
2022-10-01T17:45:32.457Z,99125.25
2022-10-01T17:48:00.544Z,99138.69
2022-10-01T17:50:27.068Z,99155.75
2022-10-01T17:52:53.504Z,99157.16
2022-10-01T17:55:21.698Z,99172.25
2022-10-01T17:57:48.045Z,99173.06
2022-10-01T18:00:14.482Z,99180.22
2022-10-01T18:02:42.920Z,99184.84
2022-10-01T18:05:14.597Z,99188.19
2022-10-01T18:07:42.129Z,99196.84
2022-10-01T18:10:11.760Z,99195.84
2022-10-01T18:12:38.318Z,99200.47
2022-10-01T18:15:05.074Z,99206.34
2022-10-01T18:17:33.178Z,99209.31
2022-10-01T18:19:59.793Z,99203.91
2022-10-01T18:22:27.203Z,99219.94
2022-10-01T18:24:53.793Z,99214.22
2022-10-01T18:27:20.322Z,99227.31
2022-10-01T18:29:46.702Z,99238.63
2022-10-01T18:32:21.048Z,99236.13
2022-10-01T18:35:01.362Z,99242.13
2022-10-01T18:38:10.453Z,99246.59
2022-10-01T18:40:43.261Z,99245.22
2022-10-01T18:43:26.066Z,99249.31
2022-10-01T18:46:20.472Z,99260.91
2022-10-01T18:48:52.945Z,99256.25
2022-10-01T18:51:41.271Z,99267.31
2022-10-01T18:54:19.907Z,99274.03
2022-10-01T18:57:18.417Z,99262.06
2022-10-01T19:00:08.666Z,99274.88
2022-10-01T19:03:00.748Z,99286.59
2022-10-01T19:05:46.399Z,99304.34
2022-10-01T19:08:37.689Z,99307.00
2022-10-01T19:11:20.730Z,99306.44
2022-10-01T19:14:09.142Z,99316.75
2022-10-01T19:16:52.255Z,99322.06
2022-10-01T19:19:38.695Z,99328.38
2022-10-01T19:22:20.557Z,99332.97
2022-10-01T19:25:08.869Z,99345.25
2022-10-01T19:28:06.389Z,99347.22
2022-10-01T19:31:01.924Z,99343.00
2022-10-01T19:33:32.693Z,99347.59
2022-10-01T19:35:59.767Z,99351.53
2022-10-01T19:38:36.305Z,99361.00
2022-10-01T19:41:07.119Z,99364.63
2022-10-01T19:43:37.572Z,99355.16
2022-10-01T19:46:37.526Z,99368.16
2022-10-01T19:49:14.678Z,99370.09
2022-10-01T19:51:54.160Z,99368.97
2022-10-01T19:54:25.130Z,99381.97
2022-10-01T19:56:54.962Z,99385.16
2022-10-01T19:59:21.724Z,99400.41
2022-10-01T20:02:15.175Z,99403.31
2022-10-01T20:04:55.654Z,99402.47
2022-10-01T20:07:44.785Z,99405.53
2022-10-01T20:10:22.464Z,99411.72
2022-10-01T20:13:07.766Z,99406.25
2022-10-01T20:15:46.224Z,99431.34
2022-10-01T20:18:40.251Z,99425.06
2022-10-01T20:21:30.335Z,99423.56
2022-10-01T20:24:17.951Z,99441.28
2022-10-01T20:27:11.376Z,99446.72
2022-10-01T20:29:52.573Z,99451.03
2022-10-01T20:32:30.270Z,99444.47
2022-10-01T20:35:04.546Z,99450.03
2022-10-01T20:37:42.518Z,99455.34
2022-10-01T20:40:18.561Z,99455.09
2022-10-01T20:42:48.813Z,99456.31
2022-10-01T20:45:21.927Z,99475.31
2022-10-01T20:48:00.302Z,99477.97
2022-10-01T20:50:32.739Z,99483.00
2022-10-01T20:53:03.800Z,99464.38
2022-10-01T20:55:45.848Z,99483.09
2022-10-01T20:58:17.839Z,99481.84
2022-10-01T21:00:46.125Z,99474.75
2022-10-01T21:03:32.880Z,99466.81
2022-10-01T21:06:16.439Z,99469.16
2022-10-01T21:08:57.062Z,99476.28
2022-10-01T21:11:26.689Z,99487.59
2022-10-01T21:14:10.715Z,99482.72
2022-10-01T21:16:54.663Z,99496.53
2022-10-01T21:19:32.676Z,99501.38
2022-10-01T21:22:28.838Z,99499.00
2022-10-01T21:25:18.324Z,99504.19
2022-10-01T21:28:19.589Z,99518.06
2022-10-01T21:31:04.386Z,99516.41
2022-10-01T21:33:44.071Z,99515.44
2022-10-01T21:36:19.366Z,99518.75
2022-10-01T21:39:10.526Z,99522.66
2022-10-01T21:41:48.066Z,99521.41
2022-10-01T21:44:32.696Z,99533.16
2022-10-01T21:47:12.980Z,99533.53
2022-10-01T21:49:58.766Z,99538.00
2022-10-01T21:52:44.342Z,99525.72
2022-10-01T21:55:48.449Z,99543.88
2022-10-01T21:58:56.314Z,99544.72
2022-10-01T22:01:44.044Z,99551.56
2022-10-01T22:04:32.712Z,99553.94
2022-10-01T22:07:09.119Z,99562.63
2022-10-01T22:09:46.531Z,99566.22
2022-10-01T22:12:14.724Z,99566.81
2022-10-01T22:14:44.165Z,99571.00
2022-10-01T22:17:17.616Z,99566.69
2022-10-01T22:19:48.565Z,99577.03
2022-10-01T22:22:22.177Z,99581.34
2022-10-01T22:24:53.414Z,99579.53
2022-10-01T22:27:23.089Z,99593.06
2022-10-01T22:30:02.086Z,99586.81
2022-10-01T22:32:33.930Z,99586.91
2022-10-01T22:35:06.782Z,99587.19
2022-10-01T22:37:42.057Z,99593.06
2022-10-01T22:40:19.714Z,99595.84
2022-10-01T22:43:01.002Z,99589.56
2022-10-01T22:45:32.886Z,99602.38
2022-10-01T22:48:08.287Z,99605.13
2022-10-01T22:50:46.719Z,99613.34
2022-10-01T22:53:28.494Z,99619.66
2022-10-01T22:55:57.076Z,99612.78
2022-10-01T22:58:35.424Z,99611.69
2022-10-01T23:01:04.831Z,99622.31
2022-10-01T23:03:59.182Z,99617.13
2022-10-01T23:06:40.920Z,99615.44
2022-10-01T23:09:15.621Z,99625.31
2022-10-01T23:11:48.012Z,99623.63
2022-10-01T23:14:35.708Z,99627.28
2022-10-01T23:17:11.440Z,99619.47
2022-10-01T23:20:31.950Z,99634.13
2022-10-01T23:23:25.482Z,99630.06
2022-10-01T23:26:12.465Z,99630.31
2022-10-01T23:28:50.545Z,99621.22
2022-10-01T23:31:31.282Z,99639.78
2022-10-01T23:34:10.849Z,99644.09
2022-10-01T23:36:47.870Z,99637.63
2022-10-01T23:39:40.541Z,99639.72
2022-10-01T23:42:31.332Z,99649.47
2022-10-01T23:45:30.616Z,99648.88
2022-10-01T23:48:09.191Z,99638.28
2022-10-01T23:51:20.438Z,99649.88
2022-10-01T23:54:22.345Z,99648.56
2022-10-01T23:57:00.959Z,99638.81
2022-10-01T23:59:33.108Z,99653.03
